createdAt,value
2023-05-16T00:02:20.107Z,99.90
2023-05-16T00:06:21.933Z,99.90
2023-05-16T00:10:23.109Z,99.90
2023-05-16T00:14:25.588Z,99.90
2023-05-16T00:18:26.722Z,99.90
2023-05-16T00:22:27.860Z,99.90
2023-05-16T00:26:28.953Z,99.90
2023-05-16T00:30:30.123Z,99.90
2023-05-16T00:34:31.316Z,99.90
2023-05-16T00:38:32.540Z,99.90
2023-05-16T00:42:33.709Z,99.90
2023-05-16T00:46:35.413Z,99.90
2023-05-16T00:50:37.189Z,99.90
2023-05-16T00:54:38.466Z,99.90
2023-05-16T00:58:39.871Z,99.90
2023-05-16T01:02:41.516Z,99.90
2023-05-16T01:06:44.914Z,99.90
2023-05-16T01:10:59.071Z,99.90
2023-05-16T01:15:07.089Z,99.90
2023-05-16T01:19:23.951Z,99.90
2023-05-16T01:23:50.535Z,99.90
2023-05-16T01:27:52.286Z,99.90
2023-05-16T01:31:53.536Z,99.90
2023-05-16T01:36:16.727Z,99.90
2023-05-16T01:40:24.708Z,99.90
2023-05-16T01:44:38.941Z,99.90
2023-05-16T01:48:55.269Z,99.90
2023-05-16T01:53:00.026Z,99.90
2023-05-16T01:57:04.064Z,99.90
2023-05-16T02:01:06.352Z,99.90
2023-05-16T02:05:07.889Z,99.90
2023-05-16T02:09:09.173Z,99.90
2023-05-16T02:13:10.426Z,99.90
2023-05-16T02:17:11.624Z,99.90
2023-05-16T02:21:12.852Z,99.90
2023-05-16T02:25:15.416Z,99.90
2023-05-16T02:29:16.599Z,99.90
2023-05-16T02:33:17.832Z,99.90
2023-05-16T02:37:18.993Z,99.90
2023-05-16T02:41:21.657Z,99.90
2023-05-16T02:45:22.718Z,99.90
2023-05-16T02:49:23.866Z,99.90
2023-05-16T02:53:25.016Z,99.90
2023-05-16T02:57:26.177Z,99.90
2023-05-16T03:01:27.353Z,99.90
2023-05-16T03:05:28.749Z,99.90
2023-05-16T03:09:30.162Z,99.90
2023-05-16T03:13:32.315Z,99.90
2023-05-16T03:17:33.616Z,99.90
2023-05-16T03:21:34.987Z,99.90
2023-05-16T03:25:36.944Z,99.90
2023-05-16T03:29:38.117Z,99.90
2023-05-16T03:33:39.287Z,99.90
2023-05-16T03:37:40.425Z,99.90
2023-05-16T03:41:41.578Z,99.90
2023-05-16T03:45:43.193Z,99.90
2023-05-16T03:49:44.323Z,99.90
2023-05-16T03:53:45.475Z,99.90
2023-05-16T03:57:47.244Z,99.90
2023-05-16T04:01:49.809Z,99.90
2023-05-16T04:05:51.773Z,99.90
2023-05-16T04:09:53.961Z,99.90
2023-05-16T04:13:55.171Z,99.90
2023-05-16T04:17:56.321Z,99.90
2023-05-16T04:21:57.477Z,99.90
2023-05-16T04:25:59.454Z,99.90
2023-05-16T04:30:01.160Z,99.90
2023-05-16T04:34:02.914Z,99.90
2023-05-16T04:38:04.062Z,99.90
2023-05-16T04:42:05.899Z,99.90
2023-05-16T04:46:07.275Z,99.90
2023-05-16T04:50:09.305Z,99.90
2023-05-16T04:54:11.320Z,99.90
2023-05-16T04:58:12.481Z,99.90
2023-05-16T05:02:13.692Z,99.90
2023-05-16T05:06:15.817Z,99.90
2023-05-16T05:10:17.015Z,99.90
2023-05-16T05:14:18.271Z,99.90
2023-05-16T05:18:19.474Z,99.90
2023-05-16T05:22:20.582Z,99.90
2023-05-16T05:26:21.992Z,99.90
2023-05-16T05:30:23.278Z,99.90
2023-05-16T05:34:24.448Z,99.90
2023-05-16T05:38:25.853Z,99.90
2023-05-16T05:42:26.913Z,99.90
2023-05-16T05:46:28.451Z,99.90
2023-05-16T05:50:29.574Z,99.90
2023-05-16T05:54:30.742Z,99.90
2023-05-16T05:58:31.897Z,99.90
2023-05-16T06:02:33.121Z,99.90
2023-05-16T06:06:34.349Z,99.90
2023-05-16T06:10:35.520Z,99.90
2023-05-16T06:14:36.666Z,99.90
2023-05-16T06:18:38.004Z,99.90
2023-05-16T06:22:39.281Z,99.90
2023-05-16T06:26:40.487Z,99.90
2023-05-16T06:30:41.615Z,99.90
2023-05-16T06:34:42.902Z,99.90
2023-05-16T06:38:44.572Z,99.90
2023-05-16T06:42:45.682Z,99.90
2023-05-16T06:46:46.946Z,99.90
2023-05-16T06:50:51.506Z,99.90
2023-05-16T06:54:52.761Z,99.90
2023-05-16T06:58:53.956Z,99.90
2023-05-16T07:02:55.249Z,99.90
2023-05-16T07:06:56.657Z,99.90
2023-05-16T07:10:57.990Z,99.90
2023-05-16T07:14:59.171Z,99.90
2023-05-16T07:19:00.654Z,99.90
2023-05-16T07:23:01.850Z,99.90
2023-05-16T07:27:03.317Z,99.90
2023-05-16T07:31:06.230Z,99.90
2023-05-16T07:35:08.832Z,99.90
2023-05-16T07:39:10.040Z,99.90
2023-05-16T07:43:11.245Z,99.90
2023-05-16T07:47:12.592Z,99.90
2023-05-16T07:51:13.806Z,99.90
2023-05-16T07:55:14.989Z,99.90
2023-05-16T07:59:16.336Z,99.90
2023-05-16T08:03:17.962Z,99.90
2023-05-16T08:07:19.358Z,99.90
2023-05-16T08:11:21.867Z,99.90
2023-05-16T08:15:23.204Z,99.90
2023-05-16T08:19:24.530Z,99.90
2023-05-16T08:23:25.826Z,99.90
2023-05-16T08:27:28.108Z,99.90
2023-05-16T08:31:29.372Z,99.90
2023-05-16T08:35:31.045Z,99.90
2023-05-16T08:39:32.279Z,99.90
2023-05-16T08:43:34.622Z,99.90
2023-05-16T08:47:40.547Z,99.90
2023-05-16T08:51:41.742Z,99.90
2023-05-16T08:55:45.379Z,99.90
2023-05-16T08:59:46.714Z,99.90
2023-05-16T09:03:50.606Z,99.90
2023-05-16T09:07:51.932Z,99.90
2023-05-16T09:11:53.120Z,99.90
2023-05-16T09:16:13.009Z,99.90
2023-05-16T09:20:17.894Z,99.90
2023-05-16T09:24:22.939Z,99.90
2023-05-16T09:28:25.880Z,99.90
2023-05-16T09:32:27.201Z,99.90
2023-05-16T09:36:28.426Z,99.90
2023-05-16T09:40:29.778Z,99.90
2023-05-16T09:44:31.766Z,99.90
2023-05-16T09:48:33.010Z,99.90
2023-05-16T09:52:34.354Z,99.90
2023-05-16T09:56:50.867Z,99.90
2023-05-16T10:00:52.569Z,99.90
2023-05-16T10:04:54.194Z,99.90
2023-05-16T10:08:55.632Z,99.90
2023-05-16T10:13:00.661Z,99.90
2023-05-16T10:17:04.702Z,99.90
2023-05-16T10:21:11.208Z,99.90
2023-05-16T10:25:19.518Z,99.90
2023-05-16T10:29:21.594Z,99.90
2023-05-16T10:33:22.904Z,99.90
2023-05-16T10:37:25.040Z,99.90
2023-05-16T10:41:26.275Z,99.90
2023-05-16T10:45:27.975Z,99.90
2023-05-16T10:49:30.631Z,99.90
2023-05-16T10:53:33.821Z,99.90
2023-05-16T10:57:35.826Z,99.90
2023-05-16T11:01:40.310Z,99.90
2023-05-16T11:05:41.788Z,99.90
2023-05-16T11:10:07.159Z,99.90
2023-05-16T11:14:08.745Z,99.90
2023-05-16T11:18:15.657Z,99.90
2023-05-16T11:22:22.779Z,99.90
2023-05-16T11:26:24.135Z,99.90
2023-05-16T11:30:25.350Z,99.90
2023-05-16T11:34:26.779Z,99.90
2023-05-16T11:38:31.588Z,99.90
2023-05-16T11:42:36.118Z,99.90
2023-05-16T11:46:40.403Z,99.90
2023-05-16T11:50:41.676Z,99.90
2023-05-16T11:54:42.907Z,99.90
2023-05-16T11:58:45.123Z,99.90
2023-05-16T12:02:48.056Z,99.90
2023-05-16T12:06:59.109Z,99.90
2023-05-16T12:11:00.332Z,99.90
2023-05-16T12:15:04.077Z,99.90
2023-05-16T12:19:06.408Z,99.90
2023-05-16T12:23:12.019Z,99.90
2023-05-16T12:27:17.063Z,98.40
2023-05-16T12:31:29.979Z,99.90
2023-05-16T12:35:23.830Z,98.80
2023-05-16T12:39:25.560Z,99.90
2023-05-16T12:43:27.909Z,99.10
2023-05-16T12:47:37.412Z,94.90
2023-05-16T12:51:41.611Z,95.90
2023-05-16T12:55:43.628Z,84.40
2023-05-16T12:59:44.907Z,89.20
2023-05-16T13:03:46.189Z,80.90
2023-05-16T13:07:47.417Z,83.60
2023-05-16T13:11:49.897Z,70.80
2023-05-16T13:15:51.149Z,62.60
2023-05-16T13:19:52.565Z,58.10
2023-05-16T13:23:53.780Z,57.00
2023-05-16T13:27:55.120Z,56.50
2023-05-16T13:31:56.397Z,58.10
2023-05-16T13:35:57.862Z,59.40
2023-05-16T13:39:59.309Z,59.70
2023-05-16T13:44:00.803Z,60.40
2023-05-16T13:48:02.099Z,57.60
2023-05-16T13:52:03.585Z,55.20
2023-05-16T13:56:05.245Z,58.00
2023-05-16T14:00:44.322Z,60.90
2023-05-16T14:04:47.805Z,58.50
2023-05-16T14:08:49.164Z,60.00
2023-05-16T14:12:54.834Z,63.10
2023-05-16T14:17:02.817Z,56.40
2023-05-16T14:21:01.715Z,65.60
2023-05-16T14:25:03.192Z,52.00
2023-05-16T14:29:04.460Z,51.90
2023-05-16T14:33:05.819Z,51.40
2023-05-16T14:37:09.091Z,53.10
2023-05-16T14:41:10.328Z,52.60
2023-05-16T14:45:11.613Z,51.80
2023-05-16T14:49:12.732Z,52.80
2023-05-16T14:53:13.942Z,54.10
2023-05-16T14:57:15.150Z,55.50
2023-05-16T15:01:16.621Z,50.70
2023-05-16T15:05:18.989Z,52.20
2023-05-16T15:09:20.839Z,53.40
2023-05-16T15:13:22.048Z,55.20
2023-05-16T15:17:23.310Z,54.60
2023-05-16T15:21:24.467Z,53.90
2023-05-16T15:25:25.953Z,50.90
2023-05-16T15:29:27.155Z,50.80
2023-05-16T15:33:28.241Z,50.70
2023-05-16T15:37:29.615Z,50.70
2023-05-16T15:41:56.430Z,55.30
2023-05-16T15:45:37.932Z,49.30
2023-05-16T15:49:39.008Z,50.50
2023-05-16T15:53:40.427Z,50.50
2023-05-16T15:57:43.256Z,54.40
2023-05-16T16:01:44.633Z,51.20
2023-05-16T16:05:47.389Z,51.10
2023-05-16T16:09:48.665Z,53.10
2023-05-16T16:13:50.376Z,48.40
2023-05-16T16:17:51.633Z,49.50
2023-05-16T16:21:52.825Z,48.90
2023-05-16T16:25:54.010Z,49.20
2023-05-16T16:29:55.359Z,50.40
2023-05-16T16:33:56.559Z,50.10
2023-05-16T16:38:06.314Z,51.00
2023-05-16T16:42:00.773Z,49.60
2023-05-16T16:46:02.006Z,52.20
2023-05-16T16:50:03.387Z,49.40
2023-05-16T16:54:04.504Z,49.50
2023-05-16T16:58:06.014Z,50.20
2023-05-16T17:02:07.288Z,50.00
2023-05-16T17:06:08.496Z,49.70
2023-05-16T17:10:10.617Z,50.30
2023-05-16T17:14:13.428Z,50.30
2023-05-16T17:18:14.938Z,51.00
2023-05-16T17:22:16.131Z,50.60
2023-05-16T17:26:17.352Z,52.20
2023-05-16T17:30:18.971Z,51.90
2023-05-16T17:34:20.341Z,53.60
2023-05-16T17:38:21.652Z,54.00
2023-05-16T17:42:23.019Z,54.70
2023-05-16T17:46:24.280Z,57.10
2023-05-16T17:50:26.140Z,56.90
2023-05-16T17:54:29.488Z,57.80
2023-05-16T17:58:30.892Z,60.40
2023-05-16T18:02:32.302Z,60.60
2023-05-16T18:06:37.129Z,60.90
2023-05-16T18:10:50.977Z,63.90
2023-05-16T18:14:43.815Z,65.20
2023-05-16T18:18:45.042Z,64.70
2023-05-16T18:22:47.327Z,66.30
2023-05-16T18:26:49.712Z,70.10
2023-05-16T18:30:51.224Z,70.00
2023-05-16T18:34:52.784Z,68.80
2023-05-16T18:38:54.929Z,69.20
2023-05-16T18:42:56.700Z,68.20
2023-05-16T18:47:00.480Z,67.60
2023-05-16T18:51:03.167Z,68.50
2023-05-16T18:55:05.304Z,72.90
2023-05-16T18:59:06.728Z,73.10
2023-05-16T19:03:09.239Z,74.20
2023-05-16T19:07:10.479Z,74.40
2023-05-16T19:11:11.772Z,81.30
2023-05-16T19:15:13.017Z,83.50
2023-05-16T19:19:14.550Z,85.30
2023-05-16T19:23:16.388Z,85.10
2023-05-16T19:27:19.613Z,87.00
2023-05-16T19:31:21.101Z,81.30
2023-05-16T19:35:22.786Z,87.90
2023-05-16T19:39:25.664Z,88.80
2023-05-16T19:43:27.030Z,89.90
2023-05-16T19:47:28.567Z,91.20
2023-05-16T19:51:40.793Z,92.60
2023-05-16T19:55:36.459Z,91.80
2023-05-16T19:59:38.482Z,93.80
2023-05-16T20:03:41.056Z,94.60
2023-05-16T20:07:42.368Z,95.00
2023-05-16T20:11:44.595Z,96.60
2023-05-16T20:15:47.169Z,96.80
2023-05-16T20:19:48.540Z,97.30
2023-05-16T20:23:50.031Z,98.30
2023-05-16T20:27:51.363Z,99.70
2023-05-16T20:31:52.730Z,99.70
2023-05-16T20:35:54.010Z,99.90
2023-05-16T20:39:55.595Z,99.90
2023-05-16T20:43:56.921Z,99.90
2023-05-16T20:47:58.540Z,99.90
2023-05-16T20:52:00.250Z,99.90
2023-05-16T20:56:01.652Z,99.90
2023-05-16T21:00:03.607Z,99.90
2023-05-16T21:04:05.333Z,99.90
2023-05-16T21:08:06.739Z,99.90
2023-05-16T21:12:08.348Z,99.90
2023-05-16T21:16:11.721Z,99.90
2023-05-16T21:20:13.444Z,99.90
2023-05-16T21:24:15.439Z,99.90
2023-05-16T21:28:16.966Z,99.90
2023-05-16T21:32:18.537Z,99.90
2023-05-16T21:36:20.539Z,99.90
2023-05-16T21:40:23.907Z,99.90
2023-05-16T21:44:28.116Z,99.90
2023-05-16T21:48:29.752Z,99.90
2023-05-16T21:52:31.339Z,99.90
2023-05-16T21:56:32.769Z,99.90
2023-05-16T22:00:34.184Z,99.90
2023-05-16T22:04:35.661Z,99.90
2023-05-16T22:08:36.922Z,99.90
2023-05-16T22:12:38.747Z,99.90
2023-05-16T22:16:40.094Z,99.90
2023-05-16T22:20:41.285Z,99.90
2023-05-16T22:24:42.528Z,99.90
2023-05-16T22:28:43.711Z,99.90
2023-05-16T22:32:46.078Z,99.90
2023-05-16T22:36:47.317Z,99.90
2023-05-16T22:40:48.647Z,99.90
2023-05-16T22:44:50.123Z,99.90
2023-05-16T22:48:51.449Z,99.90
2023-05-16T22:52:52.662Z,99.90
2023-05-16T22:56:53.873Z,99.90
2023-05-16T23:00:55.207Z,99.90
2023-05-16T23:04:56.488Z,99.90
2023-05-16T23:08:59.713Z,99.90
2023-05-16T23:13:00.959Z,99.90
2023-05-16T23:17:02.185Z,99.90
2023-05-16T23:21:03.562Z,99.90
2023-05-16T23:25:05.745Z,99.90
2023-05-16T23:29:07.129Z,99.90
2023-05-16T23:33:08.419Z,99.90
2023-05-16T23:37:09.621Z,99.90
2023-05-16T23:41:10.807Z,99.90
2023-05-16T23:45:12.063Z,99.90
2023-05-16T23:49:13.284Z,99.90
2023-05-16T23:53:14.628Z,99.90
2023-05-16T23:57:15.811Z,99.90
